Terminal Aerodrome Forecast
Issued by NWS

Home | Current Version | Previous Version | Text Only | Print | Product List | Glossary On
Versions: 1 2 3 4 5 6 7 8 9 10 11 12 13 14 15 16 17 18 19 20
711
FTUS43 KGRR 012340
TAFLAN
TAF
KLAN 012340Z 0200/0224 06010KT P6SM OVC007
     FM020200 04010KT 6SM BR VCSH OVC007
     FM020300 04009KT 4SM -RA BR VCSH OVC007
     FM021100 05006KT P6SM VCSH OVC015
     FM021600 04010KT P6SM BKN025
     FM022000 05008KT P6SM BKN035=

USA.gov is the U.S. government's official web portal to all federal, state and local government web resources and services.